Time;durP1;ratioP1;P1;durP2;ratioP2;P2;SDS_P1;SDS_P2;PMS_P1;PMS_P2;Temp;Humidity;BMP_temperature;BMP_pressure;BME280_temperature;BME280_humidity;BME280_pressure;Samples;Min_cycle;Max_cycle;Signal;HPM_P1;HPM_P2
2022/11/25 00:00:26;;;;;;;264.17;130.35;;;4.90;99.90;;;;;;5118392;28;20118;-62
2022/11/25 00:02:52;;;;;;;252.38;125.60;;;4.90;99.90;;;;;;5118406;28;20146;-63
2022/11/25 00:05:18;;;;;;;250.82;122.90;;;4.90;99.90;;;;;;5118519;28;20481;-62
2022/11/25 00:07:44;;;;;;;260.17;128.45;;;4.90;99.90;;;;;;5118271;28;20081;-62
2022/11/25 00:10:10;;;;;;;268.20;127.30;;;4.90;99.90;;;;;;5118130;28;20554;-62
2022/11/25 00:12:36;;;;;;;286.88;133.23;;;4.90;99.90;;;;;;5118178;28;20055;-62
2022/11/25 00:15:02;;;;;;;267.88;128.05;;;4.90;99.90;;;;;;5118099;28;20043;-62
2022/11/25 00:17:28;;;;;;;251.70;126.55;;;5.00;99.90;;;;;;5117067;28;20031;-62
2022/11/25 00:19:54;;;;;;;273.48;129.93;;;5.00;99.90;;;;;;5097557;28;20390;-62
2022/11/25 00:22:19;;;;;;;304.83;142.18;;;5.10;99.90;;;;;;5097543;28;20386;-63
2022/11/25 00:24:45;;;;;;;307.77;143.65;;;5.00;99.90;;;;;;5097569;28;20031;-63
2022/11/25 00:27:11;;;;;;;321.80;150.88;;;5.00;99.90;;;;;;5097533;28;20020;-62
2022/11/25 00:29:37;;;;;;;325.45;151.18;;;4.90;99.90;;;;;;5097460;28;20039;-62
2022/11/25 00:32:03;;;;;;;384.98;170.73;;;5.00;99.90;;;;;;5097333;28;20362;-62
2022/11/25 00:34:32;;;;;;;334.00;151.75;;;4.90;99.90;;;;;;5097477;28;20024;-63
2022/11/25 00:36:57;;;;;;;340.98;152.85;;;5.00;99.90;;;;;;5079336;28;20032;-62
2022/11/25 00:39:25;;;;;;;324.38;148.38;;;5.10;99.90;;;;;;5097152;28;20024;-62
2022/11/25 00:44:36;;;;;;;343.35;156.40;;;5.20;99.90;;;;;;5096413;28;20031;-62
2022/11/25 00:47:14;;;;;;;367.08;166.75;;;5.30;99.90;;;;;;5097189;28;20032;-62
2022/11/25 00:49:46;;;;;;;344.52;158.77;;;5.20;99.90;;;;;;5097319;28;20027;-62
2022/11/25 00:52:15;;;;;;;328.30;149.15;;;5.20;99.90;;;;;;5099276;28;20081;-62
2022/11/25 00:54:41;;;;;;;315.05;140.80;;;5.30;99.90;;;;;;5098741;28;20046;-62
2022/11/25 00:57:07;;;;;;;302.98;134.43;;;5.50;99.90;;;;;;5117250;28;20091;-62
2022/11/25 00:59:33;;;;;;;292.20;130.38;;;5.60;99.90;;;;;;5099149;28;20452;-62
2022/11/25 01:01:59;;;;;;;280.17;130.48;;;5.60;99.90;;;;;;5099034;28;20031;-62
2022/11/25 01:04:25;;;;;;;273.35;127.22;;;5.60;99.90;;;;;;5099066;28;20023;-63
2022/11/25 01:06:53;;;;;;;254.40;119.63;;;5.40;99.90;;;;;;5117196;28;20023;-63
2022/11/25 01:09:19;;;;;;;229.20;107.63;;;5.40;99.90;;;;;;5117241;28;20028;-62
2022/11/25 01:11:45;;;;;;;229.80;109.55;;;5.50;99.90;;;;;;5098814;28;20024;-62
2022/11/25 01:14:11;;;;;;;252.27;114.03;;;5.50;99.90;;;;;;5098637;28;20524;-62
2022/11/25 01:16:37;;;;;;;298.33;120.05;;;5.60;99.90;;;;;;5117113;28;20055;-62
2022/11/25 01:19:06;;;;;;;392.95;144.52;;;5.60;99.90;;;;;;5102354;28;20024;-62
2022/11/25 01:21:34;;;;;;;323.05;125.95;;;5.60;99.90;;;;;;5078354;28;20031;-63
2022/11/25 01:24:01;;;;;;;295.85;117.00;;;5.70;99.90;;;;;;5096348;28;20115;-62
2022/11/25 01:26:28;;;;;;;254.38;107.15;;;5.70;99.90;;;;;;5096397;28;20038;-62
2022/11/25 01:28:58;;;;;;;241.23;104.47;;;5.60;99.90;;;;;;5096378;28;20050;-63
2022/11/25 01:31:26;;;;;;;242.98;103.50;;;5.70;99.90;;;;;;5077938;28;20055;-62
2022/11/25 01:34:05;;;;;;;222.20;103.55;;;5.70;99.90;;;;;;5094930;28;20043;-63
2022/11/25 01:36:31;;;;;;;195.45;92.63;;;5.60;99.90;;;;;;5096295;28;20024;-62
2022/11/25 01:38:59;;;;;;;199.48;92.78;;;5.60;99.90;;;;;;5096257;28;20024;-63
2022/11/25 01:41:28;;;;;;;185.50;90.75;;;5.60;99.90;;;;;;5095156;28;20031;-62
2022/11/25 01:44:09;;;;;;;191.68;91.65;;;5.70;99.90;;;;;;5096300;28;20028;-62
2022/11/25 01:47:02;;;;;;;185.98;89.15;;;5.70;99.90;;;;;;5096087;28;20389;-62
2022/11/25 01:49:42;;;;;;;179.73;85.68;;;5.60;99.90;;;;;;5094711;28;20036;-62
2022/11/25 01:52:14;;;;;;;179.85;87.57;;;5.60;99.90;;;;;;5074357;28;20036;-62
2022/11/25 01:55:09;;;;;;;183.18;88.28;;;5.50;99.90;;;;;;5075609;28;20029;-62
2022/11/25 01:57:49;;;;;;;207.23;97.10;;;5.50;99.90;;;;;;5073294;28;20029;-62
2022/11/25 02:00:15;;;;;;;173.27;82.32;;;5.60;99.90;;;;;;5074343;28;20052;-62
2022/11/25 02:02:46;;;;;;;145.88;71.35;;;5.70;99.90;;;;;;5075911;28;20035;-62
2022/11/25 02:05:16;;;;;;;129.90;67.70;;;5.80;99.90;;;;;;5075498;28;20032;-63
2022/11/25 02:07:46;;;;;;;130.75;66.30;;;5.70;99.90;;;;;;5075428;28;20086;-63
2022/11/25 02:10:17;;;;;;;142.18;68.45;;;5.60;99.90;;;;;;5075283;28;20757;-62
2022/11/25 02:12:45;;;;;;;142.27;69.68;;;5.50;99.90;;;;;;5074102;28;20419;-62
2022/11/25 02:15:12;;;;;;;121.43;63.03;;;5.50;99.90;;;;;;5084950;28;20040;-62
2022/11/25 02:17:39;;;;;;;122.40;65.50;;;5.60;99.90;;;;;;5097896;28;20054;-62
2022/11/25 02:20:06;;;;;;;132.85;67.85;;;5.50;99.90;;;;;;5115639;28;20047;-62
2022/11/25 02:22:52;;;;;;;133.48;68.80;;;5.30;99.90;;;;;;5114730;28;20023;-63
2022/11/25 02:25:27;;;;;;;130.70;67.18;;;5.10;99.90;;;;;;5114419;28;20484;-62
2022/11/25 02:28:03;;;;;;;123.60;62.13;;;5.10;99.90;;;;;;5114408;28;20027;-62
2022/11/25 02:30:29;;;;;;;149.18;72.00;;;4.90;99.90;;;;;;5114222;28;20027;-62
2022/11/25 02:32:57;;;;;;;153.35;76.85;;;4.70;99.90;;;;;;5115381;27;20045;-62
2022/11/25 02:35:33;;;;;;;152.77;73.93;;;4.60;99.90;;;;;;5115513;28;20054;-63
2022/11/25 02:38:11;;;;;;;187.82;85.88;;;4.50;99.90;;;;;;5136026;27;20099;-62
2022/11/25 02:41:10;;;;;;;190.55;85.10;;;4.50;99.90;;;;;;5117579;27;20027;-63
2022/11/25 02:43:38;;;;;;;179.77;83.60;;;4.40;99.90;;;;;;5096661;27;20095;-62
2022/11/25 02:46:13;;;;;;;196.45;83.78;;;4.30;99.90;;;;;;5117364;27;20381;-63
2022/11/25 02:48:40;;;;;;;185.43;84.25;;;4.30;99.90;;;;;;5117313;27;20043;-62
2022/11/25 02:51:10;;;;;;;152.68;74.75;;;4.40;99.90;;;;;;5104587;28;20473;-62
2022/11/25 02:53:36;;;;;;;145.82;70.97;;;4.40;99.90;;;;;;5097017;28;20027;-62
2022/11/25 02:56:04;;;;;;;139.55;71.72;;;4.40;99.90;;;;;;5096948;28;20049;-63
2022/11/25 02:58:29;;;;;;;148.68;72.13;;;4.30;99.90;;;;;;5096857;28;20030;-62
2022/11/25 03:00:55;;;;;;;155.38;75.10;;;4.20;99.90;;;;;;5115060;28;20028;-62
2022/11/25 03:03:21;;;;;;;161.52;78.32;;;4.20;99.90;;;;;;5115043;28;20088;-62
2022/11/25 03:05:48;;;;;;;151.38;72.50;;;4.10;99.90;;;;;;5096919;28;20035;-63
2022/11/25 03:08:14;;;;;;;144.73;68.70;;;4.10;99.90;;;;;;5114519;28;20057;-63
2022/11/25 03:10:40;;;;;;;130.63;67.07;;;4.30;99.90;;;;;;5096598;28;20032;-62
2022/11/25 03:13:07;;;;;;;167.82;76.90;;;4.20;99.90;;;;;;5096979;28;20032;-62
2022/11/25 03:15:34;;;;;;;147.10;71.57;;;4.10;99.90;;;;;;5114738;28;20039;-62
2022/11/25 03:18:01;;;;;;;159.77;74.80;;;4.00;99.90;;;;;;5114882;28;20020;-62
2022/11/25 03:20:27;;;;;;;144.13;69.82;;;3.90;99.90;;;;;;5113584;28;20442;-63
2022/11/25 03:22:53;;;;;;;150.27;74.00;;;3.90;99.90;;;;;;5115083;28;20031;-62
2022/11/25 03:25:20;;;;;;;158.80;74.80;;;3.80;99.90;;;;;;5114971;28;20024;-63
2022/11/25 03:27:49;;;;;;;153.10;70.28;;;3.60;99.90;;;;;;5113568;28;20032;-63
2022/11/25 03:30:19;;;;;;;122.10;60.47;;;3.50;99.90;;;;;;5113558;28;20123;-62
2022/11/25 03:32:47;;;;;;;133.45;65.10;;;3.40;99.90;;;;;;5114774;28;20019;-62
2022/11/25 03:35:14;;;;;;;124.13;64.10;;;3.40;99.90;;;;;;5113389;28;20030;-62
2022/11/25 03:37:40;;;;;;;128.90;66.40;;;3.30;99.90;;;;;;5113513;28;20327;-62
2022/11/25 03:40:08;;;;;;;134.90;67.35;;;3.20;99.90;;;;;;5113546;28;20027;-62
2022/11/25 03:42:35;;;;;;;128.48;66.43;;;3.30;99.90;;;;;;5113414;28;20549;-62
2022/11/25 03:45:03;;;;;;;139.38;68.47;;;3.30;99.90;;;;;;5113239;28;20027;-62
2022/11/25 03:47:30;;;;;;;141.93;73.78;;;3.30;99.90;;;;;;5113353;28;20028;-62
2022/11/25 03:49:56;;;;;;;173.35;86.97;;;3.30;99.90;;;;;;5114424;28;20197;-62
2022/11/25 03:52:22;;;;;;;146.07;73.20;;;3.20;99.90;;;;;;5114683;28;20324;-62
2022/11/25 03:54:49;;;;;;;154.55;76.72;;;3.20;99.90;;;;;;5096356;28;20059;-62
2022/11/25 03:57:20;;;;;;;145.10;72.90;;;3.10;99.90;;;;;;5096306;28;20058;-62
2022/11/25 03:59:46;;;;;;;136.27;72.18;;;3.00;99.90;;;;;;5096412;28;20020;-62
2022/11/25 04:02:13;;;;;;;125.30;63.97;;;2.90;99.90;;;;;;5096182;28;20028;-62
2022/11/25 04:04:39;;;;;;;127.85;64.07;;;2.80;99.90;;;;;;5114521;28;20080;-62
2022/11/25 04:07:05;;;;;;;121.13;62.90;;;2.70;99.90;;;;;;5114366;28;20024;-62
2022/11/25 04:09:32;;;;;;;123.47;62.50;;;2.80;99.90;;;;;;5096305;28;20300;-63
2022/11/25 04:14:59;;;;;;;159.75;78.03;;;3.00;99.90;;;;;;5114426;28;20047;-63
2022/11/25 04:17:25;;;;;;;267.63;102.07;;;2.80;99.90;;;;;;5114474;28;20027;-62
2022/11/25 04:19:51;;;;;;;241.23;97.72;;;2.60;99.90;;;;;;5113728;28;20028;-62
2022/11/25 04:22:17;;;;;;;230.55;100.40;;;2.70;99.90;;;;;;5099752;28;20034;-62
2022/11/25 04:24:45;;;;;;;182.30;79.10;;;2.70;99.90;;;;;;5116946;28;20045;-62
2022/11/25 04:27:14;;;;;;;121.75;61.92;;;2.60;99.90;;;;;;5116793;28;20023;-62
2022/11/25 04:29:40;;;;;;;116.95;56.78;;;2.50;99.90;;;;;;5116624;28;20068;-62
2022/11/25 04:32:08;;;;;;;122.38;61.45;;;2.40;99.90;;;;;;5116489;28;20039;-62
2022/11/25 04:34:34;;;;;;;125.63;60.65;;;2.40;99.90;;;;;;5099631;28;20028;-63
2022/11/25 04:37:00;;;;;;;137.88;62.33;;;2.40;99.90;;;;;;5116471;28;20024;-62
2022/11/25 04:39:26;;;;;;;130.75;64.65;;;2.40;99.90;;;;;;5099621;28;20019;-62
2022/11/25 04:44:42;;;;;;;128.90;63.03;;;2.30;99.90;;;;;;5116245;28;20024;-63
2022/11/25 04:47:08;;;;;;;125.18;60.53;;;2.40;99.90;;;;;;5116258;28;20123;-62
2022/11/25 04:49:34;;;;;;;122.55;61.08;;;2.30;99.90;;;;;;5116220;28;20093;-62
2022/11/25 04:52:02;;;;;;;125.53;62.00;;;2.30;99.90;;;;;;5099374;28;20039;-62
2022/11/25 04:54:28;;;;;;;118.07;59.45;;;2.30;99.90;;;;;;5099192;28;20123;-62
2022/11/25 04:56:57;;;;;;;122.68;60.03;;;2.20;99.90;;;;;;5098997;28;20038;-62
2022/11/25 04:59:38;;;;;;;134.73;63.30;;;2.20;99.90;;;;;;5099127;28;20091;-62
2022/11/25 05:02:10;;;;;;;135.18;61.28;;;2.30;99.90;;;;;;5098956;28;20038;-63
2022/11/25 05:04:41;;;;;;;140.10;64.50;;;2.30;99.90;;;;;;5098956;28;20178;-62
2022/11/25 05:07:08;;;;;;;136.60;63.90;;;2.30;99.90;;;;;;5098873;28;20039;-62
2022/11/25 05:09:35;;;;;;;117.47;53.05;;;2.30;99.90;;;;;;5098777;28;20096;-62
2022/11/25 05:12:18;;;;;;;107.07;50.40;;;2.40;99.90;;;;;;5098832;28;20080;-62
2022/11/25 05:14:44;;;;;;;102.03;50.15;;;2.40;99.90;;;;;;5098761;28;20046;-62
2022/11/25 05:17:14;;;;;;;96.32;51.15;;;2.20;99.90;;;;;;5098661;28;20035;-62
2022/11/25 05:19:40;;;;;;;101.53;50.20;;;2.10;99.90;;;;;;5114585;28;20039;-62
2022/11/25 05:22:10;;;;;;;98.22;50.15;;;2.10;99.90;;;;;;5116950;28;20106;-62
2022/11/25 05:24:36;;;;;;;93.70;48.08;;;2.00;99.90;;;;;;5115505;28;20032;-62
2022/11/25 05:27:02;;;;;;;87.78;46.65;;;2.10;99.90;;;;;;5115771;28;20034;-62
2022/11/25 05:29:31;;;;;;;84.40;44.08;;;2.00;99.90;;;;;;5115607;28;20027;-62
2022/11/25 05:31:57;;;;;;;85.35;45.15;;;2.00;99.90;;;;;;5115072;28;20106;-62
2022/11/25 05:34:23;;;;;;;81.55;43.55;;;1.90;99.90;;;;;;5115348;28;20053;-62
2022/11/25 05:36:51;;;;;;;108.95;50.88;;;1.80;99.90;;;;;;5115436;28;20048;-62
2022/11/25 05:39:18;;;;;;;110.75;55.22;;;1.90;99.90;;;;;;5115296;28;20027;-62
2022/11/25 05:42:13;;;;;;;122.03;59.45;;;1.90;99.90;;;;;;5107093;28;20038;-62
2022/11/25 05:44:39;;;;;;;115.50;59.60;;;1.90;99.90;;;;;;5115056;28;20504;-62
2022/11/25 05:47:07;;;;;;;115.55;60.40;;;2.00;99.90;;;;;;5115215;28;20023;-62
2022/11/25 05:49:33;;;;;;;125.22;61.83;;;2.00;99.90;;;;;;5115076;28;20034;-62
2022/11/25 05:52:00;;;;;;;129.48;63.90;;;2.00;99.90;;;;;;5098371;28;20081;-62
2022/11/25 05:54:29;;;;;;;133.52;70.90;;;1.90;99.90;;;;;;5097967;28;20118;-62
2022/11/25 05:56:55;;;;;;;125.43;60.63;;;1.80;99.90;;;;;;5097862;28;20066;-62
2022/11/25 05:59:31;;;;;;;115.68;58.85;;;1.80;99.90;;;;;;5097880;28;20050;-62
2022/11/25 06:02:08;;;;;;;117.25;58.03;;;1.70;99.90;;;;;;5097899;28;20494;-62
2022/11/25 06:04:34;;;;;;;118.22;57.92;;;1.70;99.90;;;;;;5097861;28;20084;-62
2022/11/25 06:07:00;;;;;;;114.28;58.25;;;1.70;99.90;;;;;;5097751;28;20027;-62
2022/11/25 06:09:25;;;;;;;132.23;61.70;;;1.70;99.90;;;;;;5097439;28;20027;-62
2022/11/25 06:11:52;;;;;;;145.50;74.80;;;1.60;99.90;;;;;;5097547;28;20396;-62
2022/11/25 06:14:18;;;;;;;125.10;62.50;;;1.50;99.90;;;;;;5097495;28;20040;-62
2022/11/25 06:16:45;;;;;;;120.05;61.53;;;1.50;99.90;;;;;;5097604;28;20024;-62
2022/11/25 06:19:30;;;;;;;132.13;62.88;;;1.60;99.90;;;;;;5112327;28;20024;-63
2022/11/25 06:21:56;;;;;;;139.80;72.28;;;1.70;99.90;;;;;;5114290;28;20121;-62
2022/11/25 06:24:24;;;;;;;129.18;66.20;;;1.80;99.90;;;;;;5114161;28;20055;-62
2022/11/25 06:26:55;;;;;;;133.18;69.97;;;1.70;99.90;;;;;;5114497;28;20027;-62
2022/11/25 06:29:21;;;;;;;136.93;67.70;;;1.60;99.90;;;;;;5114268;28;20038;-62
2022/11/25 06:31:49;;;;;;;126.25;63.47;;;1.70;99.90;;;;;;5114091;28;20023;-62
2022/11/25 06:34:35;;;;;;;129.85;64.55;;;1.70;99.90;;;;;;5114218;28;20035;-63
2022/11/25 06:37:03;;;;;;;135.85;66.78;;;1.70;99.90;;;;;;5114244;28;20058;-62
2022/11/25 06:39:29;;;;;;;136.38;68.82;;;1.90;99.90;;;;;;5114391;28;20055;-62
2022/11/25 06:41:55;;;;;;;154.38;77.25;;;2.20;99.90;;;;;;5115252;28;20085;-63
2022/11/25 06:44:21;;;;;;;172.10;91.22;;;2.70;99.90;;;;;;5114785;28;20067;-62
2022/11/25 06:46:47;;;;;;;215.90;113.75;;;3.40;99.90;;;;;;5115451;28;20028;-62
2022/11/25 06:49:12;;;;;;;215.32;113.32;;;4.10;99.90;;;;;;5115172;28;20031;-62
2022/11/25 06:51:38;;;;;;;222.82;112.60;;;4.50;99.90;;;;;;5114983;28;20468;-62
2022/11/25 06:54:04;;;;;;;165.10;84.82;;;4.70;99.90;;;;;;5115214;28;20390;-63
2022/11/25 06:56:30;;;;;;;166.93;89.20;;;5.20;99.90;;;;;;5115054;28;20016;-63
2022/11/25 06:58:56;;;;;;;162.85;88.45;;;5.50;99.90;;;;;;5114992;28;20107;-63
2022/11/25 07:01:24;;;;;;;183.20;94.03;;;5.90;99.90;;;;;;5115146;28;20035;-63
2022/11/25 07:03:53;;;;;;;157.77;85.78;;;6.10;99.90;;;;;;5115118;28;20407;-62
2022/11/25 07:06:20;;;;;;;155.27;84.07;;;6.50;99.90;;;;;;5114974;28;20024;-63
2022/11/25 07:08:47;;;;;;;176.30;87.05;;;7.40;99.90;;;;;;5114984;28;20103;-63
2022/11/25 07:11:30;;;;;;;166.82;84.82;;;8.50;99.90;;;;;;5114945;28;20477;-63
2022/11/25 07:13:58;;;;;;;159.32;82.35;;;8.60;99.60;;;;;;5114709;28;20016;-63
2022/11/25 07:16:24;;;;;;;159.23;80.05;;;8.90;99.60;;;;;;5115233;28;20034;-63
2022/11/25 07:18:51;;;;;;;128.13;68.20;;;9.60;94.70;;;;;;5114716;28;20027;-63
2022/11/25 07:21:21;;;;;;;111.68;59.72;;;9.80;93.50;;;;;;5114752;28;20122;-63
2022/11/25 07:23:48;;;;;;;115.78;60.72;;;9.90;91.70;;;;;;5115027;28;20028;-63
2022/11/25 07:26:20;;;;;;;125.63;63.88;;;9.70;92.60;;;;;;5115047;28;20484;-63
2022/11/25 07:28:47;;;;;;;100.30;55.47;;;9.70;91.90;;;;;;5114866;28;20027;-63
2022/11/25 07:31:31;;;;;;;112.07;62.25;;;10.40;91.50;;;;;;5114703;28;20389;-63
2022/11/25 07:34:03;;;;;;;109.00;59.17;;;10.60;88.50;;;;;;5114749;28;20024;-63
2022/11/25 07:36:30;;;;;;;106.68;60.00;;;11.10;87.30;;;;;;5114822;28;20035;-63
2022/11/25 07:39:02;;;;;;;132.88;68.53;;;11.40;84.10;;;;;;5114725;28;20019;-63
2022/11/25 07:41:28;;;;;;;144.23;79.32;;;11.90;81.80;;;;;;5113497;28;20027;-63
2022/11/25 07:43:56;;;;;;;193.00;103.35;;;11.90;81.40;;;;;;5114704;28;20059;-63
2022/11/25 07:46:29;;;;;;;201.15;107.80;;;12.10;81.40;;;;;;5113206;28;20036;-63
2022/11/25 07:48:58;;;;;;;257.55;141.23;;;12.50;79.70;;;;;;5114593;28;20027;-63
2022/11/25 07:51:31;;;;;;;269.38;148.57;;;12.30;78.60;;;;;;5114470;28;20054;-63
2022/11/25 07:53:59;;;;;;;262.65;138.45;;;12.50;79.60;;;;;;5114700;28;20026;-63
2022/11/25 07:56:27;;;;;;;264.85;138.07;;;12.60;77.10;;;;;;5117781;28;20016;-63
2022/11/25 07:58:53;;;;;;;229.43;119.30;;;12.70;77.60;;;;;;5118644;28;20102;-64
2022/11/25 08:01:19;;;;;;;197.30;105.65;;;13.80;73.30;;;;;;5118530;28;20449;-63
2022/11/25 08:03:47;;;;;;;152.38;83.43;;;13.30;73.90;;;;;;5118547;28;20035;-63
2022/11/25 08:06:24;;;;;;;137.57;73.70;;;13.10;72.70;;;;;;5118393;28;20394;-63
2022/11/25 08:08:54;;;;;;;139.30;70.47;;;14.20;73.70;;;;;;5118163;28;20472;-63
2022/11/25 08:11:22;;;;;;;135.88;74.00;;;13.90;72.00;;;;;;5118111;28;20054;-63
2022/11/25 08:13:49;;;;;;;134.93;76.95;;;13.40;73.00;;;;;;5118359;28;20035;-64
2022/11/25 08:16:17;;;;;;;142.43;79.25;;;13.20;72.40;;;;;;5099650;28;20054;-63
2022/11/25 08:18:43;;;;;;;145.55;83.10;;;12.40;76.80;;;;;;5118045;28;20028;-63
2022/11/25 08:21:11;;;;;;;163.88;91.90;;;13.20;75.40;;;;;;5118032;28;20024;-64
2022/11/25 08:23:39;;;;;;;159.90;90.63;;;13.80;71.80;;;;;;5118127;28;20301;-63
2022/11/25 08:26:18;;;;;;;153.73;87.03;;;14.20;70.00;;;;;;5118097;28;20105;-64
2022/11/25 08:28:45;;;;;;;139.50;84.15;;;13.80;70.70;;;;;;5116785;28;20092;-63
2022/11/25 08:31:17;;;;;;;144.40;83.78;;;14.20;72.30;;;;;;5117617;28;20097;-63
2022/11/25 08:33:44;;;;;;;166.63;90.97;;;14.80;67.50;;;;;;5117908;28;20024;-63
2022/11/25 08:36:11;;;;;;;152.82;92.25;;;15.40;65.40;;;;;;5117818;28;20054;-64
2022/11/25 08:38:38;;;;;;;137.75;87.20;;;15.20;64.60;;;;;;5117789;28;20512;-64
2022/11/25 08:41:13;;;;;;;146.38;85.65;;;15.50;65.40;;;;;;5117775;28;20028;-63
2022/11/25 08:43:40;;;;;;;149.82;88.20;;;15.80;65.30;;;;;;5117748;27;20085;-64
2022/11/25 08:46:14;;;;;;;146.07;88.57;;;15.90;62.10;;;;;;5117625;28;20023;-64
2022/11/25 08:48:41;;;;;;;151.10;86.80;;;15.70;64.10;;;;;;5117728;28;20488;-63
2022/11/25 08:51:10;;;;;;;146.38;87.45;;;16.80;61.20;;;;;;5117220;28;20058;-64
2022/11/25 08:53:37;;;;;;;147.07;89.28;;;16.90;59.30;;;;;;5117602;28;20023;-64
2022/11/25 08:56:04;;;;;;;150.20;88.30;;;16.40;59.00;;;;;;5117374;28;20076;-64
2022/11/25 08:58:30;;;;;;;158.57;89.50;;;16.40;59.70;;;;;;5117437;28;20024;-64
2022/11/25 09:00:56;;;;;;;141.50;85.05;;;16.50;61.10;;;;;;5117302;28;20023;-64
2022/11/25 09:03:22;;;;;;;151.27;91.05;;;16.80;61.80;;;;;;5117323;28;20039;-64
2022/11/25 09:05:49;;;;;;;138.32;84.13;;;17.20;58.40;;;;;;5116718;28;20032;-64
2022/11/25 09:08:15;;;;;;;149.15;88.40;;;17.30;58.00;;;;;;5117087;28;20032;-64
2022/11/25 09:10:41;;;;;;;155.35;89.78;;;17.90;57.20;;;;;;5117006;28;20101;-64
2022/11/25 09:13:09;;;;;;;130.05;79.15;;;17.70;56.40;;;;;;5117257;28;20024;-64
2022/11/25 09:15:35;;;;;;;129.43;77.90;;;18.20;54.90;;;;;;5116753;28;20042;-64
2022/11/25 09:18:04;;;;;;;136.07;77.88;;;17.40;55.90;;;;;;5117145;28;20055;-64
2022/11/25 09:20:32;;;;;;;126.05;74.00;;;17.30;58.30;;;;;;5116921;28;20023;-64
2022/11/25 09:22:59;;;;;;;116.72;69.18;;;18.00;54.90;;;;;;5116790;28;20032;-64
2022/11/25 09:25:26;;;;;;;117.80;71.55;;;18.00;55.30;;;;;;5116925;28;20032;-64
2022/11/25 09:27:52;;;;;;;106.97;60.95;;;18.30;55.30;;;;;;5116865;28;20504;-64
2022/11/25 09:30:18;;;;;;;112.57;60.53;;;18.90;53.20;;;;;;5116681;28;20355;-64
2022/11/25 09:32:48;;;;;;;93.65;54.72;;;18.80;50.50;;;;;;5116606;28;20031;-64
2022/11/25 09:35:14;;;;;;;103.90;57.30;;;18.70;51.40;;;;;;5116756;28;20393;-64
2022/11/25 09:37:40;;;;;;;99.13;57.83;;;19.30;51.90;;;;;;5116587;28;20020;-64
2022/11/25 09:40:11;;;;;;;97.57;57.58;;;19.30;50.60;;;;;;5116634;28;20027;-64
2022/11/25 09:46:40;;;;;;;99.40;59.38;;;18.60;53.00;;;;;;5095307;28;20059;-64
2022/11/25 09:49:07;;;;;;;108.53;58.17;;;19.40;51.10;;;;;;5116127;28;20024;-65
2022/11/25 09:51:58;;;;;;;105.22;58.88;;;19.60;51.40;;;;;;5116036;28;20076;-64
2022/11/25 09:54:28;;;;;;;;;;;19.70;50.40;;;;;;5116725;28;20024;-64
2022/11/25 09:57:07;;;;;;;114.57;68.80;;;19.10;50.60;;;;;;5116128;28;20006;-65
2022/11/25 10:00:03;;;;;;;99.18;60.85;;;19.60;51.50;;;;;;5098123;28;20374;-65
2022/11/25 10:02:50;;;;;;;107.75;65.28;;;19.50;50.10;;;;;;5114173;28;20189;-64
2022/11/25 10:05:26;;;;;;;89.90;53.67;;;20.30;48.80;;;;;;5097948;28;20063;-65
2022/11/25 10:07:56;;;;;;;88.65;54.95;;;20.00;49.00;;;;;;5115920;28;20027;-65
2022/11/25 10:10:35;;;;;;;89.50;55.95;;;20.20;48.60;;;;;;5116061;28;20042;-64
2022/11/25 10:13:04;;;;;;;85.00;52.80;;;20.50;47.50;;;;;;5115870;28;20024;-65
2022/11/25 10:15:39;;;;;;;82.35;53.33;;;20.70;48.20;;;;;;5083739;28;20112;-65
2022/11/25 10:18:25;;;;;;;72.28;43.95;;;21.30;47.20;;;;;;5100415;28;20024;-65
2022/11/25 10:20:51;;;;;;;80.68;49.08;;;20.90;46.80;;;;;;5115262;28;20035;-65
2022/11/25 10:23:33;;;;;;;67.10;40.70;;;21.10;46.50;;;;;;5116256;28;20164;-65
2022/11/25 10:26:09;;;;;;;60.70;38.05;;;21.80;45.30;;;;;;5115825;28;20047;-65
2022/11/25 10:28:36;;;;;;;51.38;32.75;;;21.20;45.70;;;;;;5115757;28;20028;-65
2022/11/25 10:31:12;;;;;;;37.72;21.50;;;20.70;45.10;;;;;;5115467;28;20034;-65
2022/11/25 10:33:44;;;;;;;36.05;20.77;;;20.70;45.40;;;;;;5115531;28;20031;-65
2022/11/25 10:36:17;;;;;;;20.85;12.82;;;20.40;46.80;;;;;;5115554;28;20055;-65
2022/11/25 10:38:56;;;;;;;29.13;15.77;;;21.20;44.60;;;;;;5115503;28;20026;-65
2022/11/25 10:41:26;;;;;;;35.33;21.73;;;20.90;43.20;;;;;;5115418;28;20035;-65
2022/11/25 10:43:52;;;;;;;26.70;18.23;;;20.60;44.00;;;;;;5115441;28;20032;-65
2022/11/25 10:46:36;;;;;;;39.78;20.38;;;20.80;43.80;;;;;;5115172;28;20063;-65
2022/11/25 10:49:46;;;;;;;38.67;22.00;;;20.60;44.10;;;;;;5115240;28;20382;-65
2022/11/25 10:52:13;;;;;;;18.08;11.00;;;21.00;43.90;;;;;;5048276;28;20044;-65
2022/11/25 10:54:39;;;;;;;24.05;14.07;;;21.40;42.50;;;;;;5074513;28;20036;-65
2022/11/25 10:57:19;;;;;;;23.48;15.00;;;21.10;42.00;;;;;;5074433;28;20059;-65
2022/11/25 11:00:07;;;;;;;18.90;13.23;;;20.00;44.00;;;;;;5074671;28;20458;-65
2022/11/25 11:02:40;;;;;;;27.05;15.23;;;20.10;43.50;;;;;;5074370;28;20273;-65
2022/11/25 11:05:09;;;;;;;31.15;18.10;;;20.60;43.90;;;;;;5074468;28;20124;-65
2022/11/25 11:07:41;;;;;;;29.17;17.65;;;20.80;42.10;;;;;;5074440;28;20021;-65
2022/11/25 11:10:16;;;;;;;27.25;16.35;;;21.30;41.50;;;;;;5074351;28;20036;-65
2022/11/25 11:13:18;;;;;;;24.80;15.05;;;20.50;42.60;;;;;;5074341;28;20024;-65
2022/11/25 11:15:46;;;;;;;30.90;17.88;;;21.00;41.90;;;;;;5105620;28;20124;-65
2022/11/25 11:18:35;;;;;;;23.50;15.20;;;20.90;40.40;;;;;;5103668;28;20023;-65
2022/11/25 11:21:02;;;;;;;24.92;15.35;;;20.70;42.00;;;;;;5119636;28;20438;-65
2022/11/25 11:23:28;;;;;;;30.48;17.75;;;20.80;41.10;;;;;;5117204;28;20023;-65
2022/11/25 11:26:01;;;;;;;27.75;18.20;;;21.20;42.50;;;;;;5135473;28;20058;-65
2022/11/25 11:28:37;;;;;;;28.20;16.52;;;20.30;41.90;;;;;;5135532;27;20034;-65
2022/11/25 11:31:03;;;;;;;27.27;15.73;;;21.00;41.70;;;;;;5121025;27;20084;-65
2022/11/25 11:33:32;;;;;;;26.33;16.50;;;21.20;43.60;;;;;;5139485;27;20035;-65
2022/11/25 11:36:07;;;;;;;30.95;17.10;;;21.70;40.10;;;;;;5139602;27;20034;-65
2022/11/25 11:38:46;;;;;;;25.90;15.45;;;21.50;41.20;;;;;;5139512;27;20027;-65
2022/11/25 11:41:36;;;;;;;28.10;15.75;;;21.80;39.20;;;;;;5139496;27;20027;-65
2022/11/25 11:44:20;;;;;;;30.70;17.63;;;21.40;39.30;;;;;;5139374;27;20031;-65
2022/11/25 11:47:22;;;;;;;28.42;17.02;;;20.70;41.60;;;;;;5139385;27;20094;-65
2022/11/25 11:49:53;;;;;;;29.40;17.38;;;21.20;40.80;;;;;;5139234;27;20019;-65
2022/11/25 11:52:19;;;;;;;30.83;16.25;;;20.30;40.70;;;;;;5139034;27;20059;-65
2022/11/25 11:54:59;;;;;;;26.10;14.85;;;20.50;41.80;;;;;;5139246;27;20491;-65
2022/11/25 11:57:46;;;;;;;23.42;14.05;;;21.40;40.40;;;;;;5138921;27;20027;-65
2022/11/25 12:00:24;;;;;;;22.30;14.23;;;21.10;40.50;;;;;;5139313;27;20023;-65
2022/11/25 12:03:16;;;;;;;28.10;14.77;;;20.60;40.10;;;;;;5138990;27;20094;-65
2022/11/25 12:05:42;;;;;;;21.90;13.23;;;20.20;41.80;;;;;;5138922;27;20019;-65
2022/11/25 12:08:12;;;;;;;20.75;12.65;;;21.00;40.90;;;;;;5138909;27;20019;-65
2022/11/25 12:10:50;;;;;;;22.60;12.90;;;19.90;41.10;;;;;;5138928;27;20031;-65
2022/11/25 12:13:39;;;;;;;28.63;14.25;;;19.90;41.10;;;;;;5138694;27;20448;-65
2022/11/25 12:16:20;;;;;;;20.50;10.68;;;20.10;41.90;;;;;;5138624;27;20092;-65
2022/11/25 12:19:07;;;;;;;23.45;12.55;;;20.80;39.70;;;;;;5138686;27;20547;-65
2022/11/25 12:21:42;;;;;;;20.20;11.07;;;21.20;39.50;;;;;;5138525;27;20019;-65
2022/11/25 12:24:13;;;;;;;21.08;11.52;;;20.80;38.80;;;;;;5138601;27;20108;-65
2022/11/25 12:26:52;;;;;;;25.00;11.18;;;20.00;39.60;;;;;;5138605;27;20434;-65
2022/11/25 12:29:30;;;;;;;18.85;10.57;;;20.60;41.30;;;;;;5138572;27;20429;-65
2022/11/25 12:32:30;;;;;;;22.50;10.65;;;21.10;39.00;;;;;;5138238;27;20450;-65
2022/11/25 12:35:04;;;;;;;19.80;10.52;;;20.50;39.60;;;;;;5138447;27;20058;-65
2022/11/25 12:37:53;;;;;;;21.90;10.93;;;20.80;39.10;;;;;;5138460;27;20108;-65
2022/11/25 12:40:30;;;;;;;20.00;11.55;;;20.90;40.40;;;;;;5136740;27;20043;-65
2022/11/25 12:43:21;;;;;;;23.65;11.30;;;20.80;38.10;;;;;;5138388;27;20023;-65
2022/11/25 12:45:54;;;;;;;19.92;10.98;;;21.50;37.80;;;;;;5137379;27;20037;-65
2022/11/25 12:48:20;;;;;;;21.85;10.73;;;20.90;39.50;;;;;;5138142;27;20023;-65
2022/11/25 12:51:00;;;;;;;25.63;9.65;;;21.10;38.90;;;;;;5138071;27;20023;-65
2022/11/25 12:53:49;;;;;;;18.52;9.77;;;20.90;38.60;;;;;;5137889;27;20380;-65